createdAt,value
2023-01-12T00:01:15.682Z,7.75
2023-01-12T00:03:42.003Z,8.20
2023-01-12T00:06:08.335Z,16.13
2023-01-12T00:08:34.813Z,10.57
2023-01-12T00:11:01.810Z,14.98
2023-01-12T00:13:29.576Z,14.25
2023-01-12T00:16:21.011Z,10.80
2023-01-12T00:18:47.710Z,11.52
2023-01-12T00:21:14.465Z,16.58
2023-01-12T00:23:40.895Z,12.13
2023-01-12T00:26:08.447Z,14.07
2023-01-12T00:28:35.330Z,10.10
2023-01-12T00:31:02.296Z,12.85
2023-01-12T00:33:28.916Z,15.82
2023-01-12T00:35:55.286Z,17.92
2023-01-12T00:38:21.794Z,16.60
2023-01-12T00:40:48.180Z,13.73
2023-01-12T00:43:34.629Z,14.43
2023-01-12T00:46:01.045Z,20.83
2023-01-12T00:48:27.411Z,26.23
2023-01-12T00:50:53.796Z,21.13
2023-01-12T00:53:20.109Z,22.25
2023-01-12T00:55:46.528Z,24.58
2023-01-12T00:58:12.897Z,23.25
2023-01-12T01:00:39.319Z,15.88
2023-01-12T01:03:05.723Z,19.25
2023-01-12T01:05:33.312Z,21.08
2023-01-12T01:07:59.672Z,18.50
2023-01-12T01:10:26.028Z,26.20
2023-01-12T01:12:52.370Z,18.92
2023-01-12T01:15:18.762Z,22.05
2023-01-12T01:17:45.074Z,20.65
2023-01-12T01:20:12.040Z,21.00
2023-01-12T01:22:38.377Z,19.83
2023-01-12T01:25:04.870Z,22.23
2023-01-12T01:27:31.392Z,18.02
2023-01-12T01:29:57.755Z,34.03
2023-01-12T01:32:24.037Z,21.85
2023-01-12T01:34:50.487Z,23.45
2023-01-12T01:37:16.960Z,17.92
2023-01-12T01:39:43.325Z,27.00
2023-01-12T01:42:27.908Z,26.23
2023-01-12T01:44:56.173Z,21.58
2023-01-12T01:47:34.861Z,17.45
2023-01-12T01:50:03.553Z,25.73
2023-01-12T01:52:38.047Z,26.98
2023-01-12T01:55:24.995Z,28.17
2023-01-12T01:58:17.739Z,25.48
2023-01-12T02:00:44.944Z,16.25
2023-01-12T02:03:11.475Z,19.17
2023-01-12T02:05:39.568Z,21.20
2023-01-12T02:08:14.777Z,20.30
2023-01-12T02:10:41.287Z,16.98
2023-01-12T02:13:26.342Z,25.63
2023-01-12T02:16:17.204Z,14.27
2023-01-12T02:18:54.303Z,14.27
2023-01-12T02:21:23.432Z,17.02
2023-01-12T02:24:08.652Z,10.98
2023-01-12T02:26:54.053Z,15.10
2023-01-12T02:29:23.352Z,9.85
2023-01-12T02:31:58.693Z,17.67
2023-01-12T02:34:28.155Z,10.75
2023-01-12T02:37:13.335Z,10.45
2023-01-12T02:39:39.615Z,8.90
2023-01-12T02:42:38.453Z,7.95
2023-01-12T02:45:24.463Z,5.90
2023-01-12T02:48:09.560Z,8.25
2023-01-12T02:50:35.952Z,6.45
2023-01-12T02:53:25.737Z,8.40
2023-01-12T02:55:52.437Z,9.02
2023-01-12T02:58:20.922Z,5.45
2023-01-12T03:00:49.454Z,10.40
2023-01-12T03:03:17.285Z,14.05
2023-01-12T03:05:44.096Z,7.95
2023-01-12T03:08:13.860Z,8.05
2023-01-12T03:10:53.360Z,5.35
2023-01-12T03:13:20.207Z,11.75
2023-01-12T03:15:48.487Z,8.00
2023-01-12T03:18:16.458Z,8.85
2023-01-12T03:20:54.199Z,9.32
2023-01-12T03:23:22.858Z,8.40
2023-01-12T03:25:51.232Z,10.52
2023-01-12T03:28:18.432Z,12.48
2023-01-12T03:30:46.828Z,15.45
2023-01-12T03:33:13.217Z,10.35
2023-01-12T03:35:43.590Z,13.32
2023-01-12T03:38:16.531Z,12.73
2023-01-12T03:40:49.326Z,12.68
2023-01-12T03:43:17.849Z,12.18
2023-01-12T03:45:58.703Z,14.13
2023-01-12T03:48:31.100Z,15.98
2023-01-12T03:50:59.749Z,11.55
2023-01-12T03:53:26.239Z,12.32
2023-01-12T03:55:55.025Z,14.30
2023-01-12T03:58:22.569Z,12.48
2023-01-12T04:00:48.930Z,10.13
2023-01-12T04:03:16.478Z,11.13
2023-01-12T04:05:43.887Z,10.38
2023-01-12T04:08:11.187Z,9.00
2023-01-12T04:10:37.512Z,10.93
2023-01-12T04:13:03.928Z,6.50
2023-01-12T04:15:30.422Z,9.32
2023-01-12T04:17:56.763Z,8.55
2023-01-12T04:20:23.319Z,8.50
2023-01-12T04:22:49.694Z,7.65
2023-01-12T04:25:17.513Z,7.75
2023-01-12T04:27:51.535Z,15.45
2023-01-12T04:30:20.356Z,7.15
2023-01-12T04:32:46.728Z,12.48
2023-01-12T04:35:14.715Z,6.68
2023-01-12T04:37:41.114Z,8.73
2023-01-12T04:40:08.646Z,6.03
2023-01-12T04:42:53.611Z,8.75
2023-01-12T04:45:20.149Z,7.70
2023-01-12T04:47:46.543Z,8.23
2023-01-12T04:50:12.953Z,5.10
2023-01-12T04:52:39.725Z,8.65
2023-01-12T04:55:06.232Z,4.10
2023-01-12T04:57:32.607Z,5.90
2023-01-12T04:59:59.098Z,11.98
2023-01-12T05:02:25.567Z,12.07
2023-01-12T05:04:51.918Z,9.95
2023-01-12T05:07:18.293Z,8.95
2023-01-12T05:10:03.408Z,9.73
2023-01-12T05:12:29.860Z,5.38
2023-01-12T05:14:56.223Z,8.18
2023-01-12T05:17:22.566Z,6.35
2023-01-12T05:19:49.741Z,8.30
2023-01-12T05:22:16.328Z,7.80
2023-01-12T05:24:42.637Z,8.63
2023-01-12T05:27:08.962Z,8.40
2023-01-12T05:29:35.313Z,6.95
2023-01-12T05:32:01.639Z,6.53
2023-01-12T05:34:28.004Z,5.32
2023-01-12T05:36:54.344Z,5.97
2023-01-12T05:39:21.760Z,4.95
2023-01-12T05:42:07.020Z,7.28
2023-01-12T05:44:33.445Z,11.77
2023-01-12T05:46:59.812Z,8.07
2023-01-12T05:49:26.162Z,7.88
2023-01-12T05:51:52.618Z,8.80
2023-01-12T05:54:18.935Z,4.57
2023-01-12T05:57:17.564Z,4.82
2023-01-12T05:59:43.882Z,10.20
2023-01-12T06:02:13.782Z,7.28
2023-01-12T06:04:40.265Z,6.77
2023-01-12T06:07:06.653Z,6.70
2023-01-12T06:09:34.312Z,4.32
2023-01-12T06:12:19.321Z,6.82
2023-01-12T06:14:45.815Z,4.18
2023-01-12T06:17:12.197Z,8.88
2023-01-12T06:19:39.078Z,4.65
2023-01-12T06:22:07.190Z,5.90
2023-01-12T06:24:33.538Z,5.10
2023-01-12T06:27:00.178Z,4.93
2023-01-12T06:29:26.584Z,5.07
2023-01-12T06:31:52.938Z,3.83
2023-01-12T06:34:20.280Z,5.50
2023-01-12T06:36:46.613Z,5.63
2023-01-12T06:39:13.180Z,6.88
2023-01-12T06:41:57.896Z,5.50
2023-01-12T06:44:24.393Z,5.80
2023-01-12T06:46:50.923Z,3.97
2023-01-12T06:49:17.310Z,6.05
2023-01-12T06:51:43.872Z,3.20
2023-01-12T06:54:10.432Z,3.40
2023-01-12T06:56:36.753Z,3.17
2023-01-12T06:59:03.087Z,2.97
2023-01-12T07:01:29.460Z,3.30
2023-01-12T07:03:55.901Z,3.42
2023-01-12T07:06:22.405Z,3.60
2023-01-12T07:08:48.769Z,5.00
2023-01-12T07:11:17.971Z,5.68
2023-01-12T07:13:44.297Z,5.65
2023-01-12T07:16:11.182Z,3.00
2023-01-12T07:18:37.668Z,2.92
2023-01-12T07:21:07.913Z,3.83
2023-01-12T07:23:34.929Z,5.60
2023-01-12T07:26:01.473Z,6.15
2023-01-12T07:28:27.895Z,3.45
2023-01-12T07:30:58.968Z,6.93
2023-01-12T07:33:25.323Z,4.28
2023-01-12T07:35:51.644Z,5.88
2023-01-12T07:38:18.114Z,7.82
2023-01-12T07:40:44.446Z,4.53
2023-01-12T07:43:19.424Z,5.63
2023-01-12T07:45:49.092Z,5.78
2023-01-12T07:48:18.660Z,6.03
2023-01-12T07:50:45.158Z,4.75
2023-01-12T07:53:11.499Z,6.60
2023-01-12T07:55:39.677Z,6.78
2023-01-12T07:58:08.875Z,7.25
2023-01-12T08:00:35.786Z,6.32
2023-01-12T08:03:06.552Z,5.15
2023-01-12T08:05:33.295Z,8.13
2023-01-12T08:08:00.405Z,7.00
2023-01-12T08:10:27.904Z,7.05
2023-01-12T08:12:54.687Z,9.38
2023-01-12T08:15:21.002Z,7.20
2023-01-12T08:17:52.790Z,7.40
2023-01-12T08:20:21.678Z,8.57
2023-01-12T08:22:51.578Z,5.30
2023-01-12T08:25:20.136Z,10.17
2023-01-12T08:27:49.910Z,5.80
2023-01-12T08:30:17.780Z,7.03
2023-01-12T08:32:44.386Z,10.68
2023-01-12T08:35:11.383Z,10.05
2023-01-12T08:37:37.693Z,8.23
2023-01-12T08:40:04.844Z,7.72
2023-01-12T08:42:31.940Z,6.72
2023-01-12T08:44:58.434Z,7.18
2023-01-12T08:47:30.357Z,8.35
2023-01-12T08:49:57.674Z,7.40
2023-01-12T08:52:25.468Z,7.57
2023-01-12T08:55:00.982Z,6.82
2023-01-12T08:57:34.074Z,6.05
2023-01-12T09:00:00.401Z,7.25
2023-01-12T09:02:27.575Z,5.55
2023-01-12T09:05:04.785Z,7.93
2023-01-12T09:07:53.261Z,6.07
2023-01-12T09:10:19.681Z,6.75
2023-01-12T09:12:46.031Z,8.55
2023-01-12T09:15:16.090Z,6.95
2023-01-12T09:17:43.501Z,16.95
2023-01-12T09:20:13.031Z,6.28
2023-01-12T09:22:39.340Z,7.75
2023-01-12T09:25:05.861Z,7.43
2023-01-12T09:27:32.159Z,6.95
2023-01-12T09:29:58.508Z,8.85
2023-01-12T09:32:29.236Z,7.30
2023-01-12T09:35:02.759Z,10.35
2023-01-12T09:37:29.364Z,8.80
2023-01-12T09:39:55.787Z,9.85
2023-01-12T09:42:41.090Z,8.63
2023-01-12T09:45:40.787Z,8.18
2023-01-12T09:48:11.599Z,8.75
2023-01-12T09:53:11.962Z,6.47
2023-01-12T09:55:57.728Z,9.63
2023-01-12T09:58:37.281Z,9.45
2023-01-12T10:01:10.676Z,13.63
2023-01-12T10:03:41.623Z,10.27
2023-01-12T10:06:15.378Z,14.88
2023-01-12T10:08:44.445Z,10.38
2023-01-12T10:11:10.811Z,12.23
2023-01-12T10:13:45.653Z,7.65
2023-01-12T10:16:16.855Z,13.65
2023-01-12T10:18:47.467Z,16.40
2023-01-12T10:23:40.293Z,9.50
2023-01-12T10:26:09.622Z,16.48
2023-01-12T10:28:36.994Z,14.18
2023-01-12T10:31:04.015Z,15.35
2023-01-12T10:33:31.903Z,14.25
2023-01-12T10:36:02.970Z,11.25
2023-01-12T10:38:31.386Z,9.30
2023-01-12T10:41:09.966Z,11.98
2023-01-12T10:43:36.897Z,10.90
2023-01-12T10:46:03.293Z,10.88
2023-01-12T10:48:30.895Z,9.57
2023-01-12T10:50:58.890Z,7.03
2023-01-12T10:53:43.657Z,10.52
2023-01-12T10:56:28.442Z,11.77
2023-01-12T10:58:57.880Z,10.95
2023-01-12T11:01:24.509Z,8.82
2023-01-12T11:03:51.044Z,7.90
2023-01-12T11:06:25.474Z,6.70
2023-01-12T11:08:51.886Z,6.30
2023-01-12T11:11:26.742Z,5.60
2023-01-12T11:13:55.006Z,3.78
2023-01-12T11:16:25.709Z,6.63
2023-01-12T11:19:10.473Z,6.97
2023-01-12T11:21:38.066Z,4.03
2023-01-12T11:24:14.671Z,2.30
2023-01-12T11:27:04.132Z,2.80
2023-01-12T11:29:33.707Z,2.47
2023-01-12T11:32:04.393Z,1.92
2023-01-12T11:34:37.184Z,3.17
2023-01-12T11:37:13.590Z,3.65
2023-01-12T11:39:41.549Z,1.25
2023-01-12T11:42:34.300Z,3.85
2023-01-12T11:45:33.110Z,2.00
2023-01-12T11:48:04.576Z,2.28
2023-01-12T11:50:33.392Z,2.17
2023-01-12T11:53:00.201Z,1.55
2023-01-12T11:55:26.667Z,2.88
2023-01-12T11:58:11.703Z,2.67
2023-01-12T12:00:44.137Z,3.35
2023-01-12T12:03:13.559Z,2.92
2023-01-12T12:05:56.629Z,3.05
2023-01-12T12:08:23.010Z,2.22
2023-01-12T12:10:49.388Z,1.88
2023-01-12T12:13:15.940Z,1.60
2023-01-12T12:15:59.195Z,2.15
2023-01-12T12:18:25.574Z,4.03
2023-01-12T12:21:07.330Z,2.85
2023-01-12T12:23:49.688Z,4.82
2023-01-12T12:26:25.261Z,4.47
2023-01-12T12:28:51.605Z,2.22
2023-01-12T12:31:21.365Z,4.68
2023-01-12T12:33:53.915Z,2.15
2023-01-12T12:36:46.699Z,3.10
2023-01-12T12:39:13.006Z,1.85
2023-01-12T12:42:00.061Z,2.67
2023-01-12T12:44:53.637Z,2.00
2023-01-12T12:47:35.561Z,2.25
2023-01-12T12:50:04.057Z,3.50
2023-01-12T12:52:36.563Z,1.88
2023-01-12T12:55:03.724Z,2.70
2023-01-12T13:00:53.722Z,2.08
2023-01-12T13:03:38.904Z,1.75
2023-01-12T13:06:17.314Z,5.35
2023-01-12T13:08:45.323Z,2.80
2023-01-12T13:11:11.723Z,3.10
2023-01-12T13:13:38.776Z,1.98
2023-01-12T13:16:11.282Z,4.03
2023-01-12T13:18:52.999Z,2.83
2023-01-12T13:21:28.495Z,2.13
2023-01-12T13:24:14.815Z,3.20
2023-01-12T13:26:42.349Z,2.45
2023-01-12T13:29:24.073Z,4.88
2023-01-12T13:31:51.292Z,3.40
2023-01-12T13:34:39.435Z,3.65
2023-01-12T13:37:24.426Z,6.45
2023-01-12T13:40:10.996Z,3.92
2023-01-12T13:42:56.345Z,3.25
2023-01-12T13:45:22.950Z,4.45
2023-01-12T13:47:51.303Z,6.03
2023-01-12T13:50:19.038Z,4.00
2023-01-12T13:52:56.448Z,6.60
2023-01-12T13:55:24.843Z,8.52
2023-01-12T13:57:57.486Z,3.15
2023-01-12T14:00:24.017Z,3.03
2023-01-12T14:02:51.864Z,3.30
2023-01-12T14:05:21.433Z,4.63
2023-01-12T14:07:51.629Z,3.88
2023-01-12T14:10:36.257Z,3.70
2023-01-12T14:13:11.765Z,3.88
2023-01-12T14:16:00.613Z,4.60
2023-01-12T14:18:41.413Z,5.53
2023-01-12T14:21:19.991Z,4.57
2023-01-12T14:23:46.459Z,3.85
2023-01-12T14:26:17.536Z,3.83
2023-01-12T14:28:45.537Z,3.08
2023-01-12T14:31:24.308Z,4.65
2023-01-12T14:33:58.220Z,3.70
2023-01-12T14:36:26.737Z,3.53
2023-01-12T14:38:53.412Z,3.78
2023-01-12T14:41:40.379Z,4.43
2023-01-12T14:44:25.591Z,4.43
2023-01-12T14:46:54.525Z,5.50
2023-01-12T14:49:22.405Z,4.45
2023-01-12T14:51:53.497Z,5.47
2023-01-12T14:54:20.356Z,5.38
2023-01-12T14:56:50.970Z,4.22
2023-01-12T14:59:20.406Z,4.63
2023-01-12T15:01:46.771Z,4.55
2023-01-12T15:04:23.647Z,5.25
2023-01-12T15:07:00.810Z,5.00
2023-01-12T15:09:34.766Z,4.75
2023-01-12T15:12:19.748Z,5.25
2023-01-12T15:14:46.015Z,4.38
2023-01-12T15:17:31.168Z,6.80
2023-01-12T15:20:16.318Z,4.22
2023-01-12T15:23:04.282Z,4.63
2023-01-12T15:25:36.334Z,4.22
2023-01-12T15:28:03.846Z,6.50
2023-01-12T15:30:30.779Z,6.30
2023-01-12T15:32:57.124Z,3.80
2023-01-12T15:35:27.447Z,5.28
2023-01-12T15:37:54.874Z,3.53
2023-01-12T15:40:21.734Z,3.83
2023-01-12T15:42:48.184Z,6.13
2023-01-12T15:45:20.101Z,4.28
2023-01-12T15:47:47.134Z,3.65
2023-01-12T15:50:13.483Z,6.28
2023-01-12T15:52:39.793Z,9.98
2023-01-12T15:55:06.435Z,8.90
2023-01-12T15:57:33.139Z,7.05
2023-01-12T15:59:59.521Z,10.80
2023-01-12T16:02:34.551Z,5.63
2023-01-12T16:05:03.833Z,5.82
2023-01-12T16:07:30.346Z,5.55
2023-01-12T16:09:56.970Z,5.63
2023-01-12T16:12:23.797Z,9.38
2023-01-12T16:14:50.466Z,11.05
2023-01-12T16:17:17.087Z,5.40
2023-01-12T16:19:43.852Z,5.55
2023-01-12T16:22:21.043Z,8.57
2023-01-12T16:24:48.531Z,6.95
2023-01-12T16:27:15.229Z,8.60
2023-01-12T16:29:41.587Z,5.03
2023-01-12T16:32:08.189Z,3.15
2023-01-12T16:34:34.651Z,4.03
2023-01-12T16:37:14.978Z,4.18
2023-01-12T16:39:41.967Z,4.78
2023-01-12T16:42:08.689Z,4.20
2023-01-12T16:44:39.079Z,4.30
2023-01-12T16:47:11.400Z,4.40
2023-01-12T16:49:37.978Z,5.25
2023-01-12T16:52:04.918Z,5.07
2023-01-12T16:54:33.337Z,5.57
2023-01-12T16:56:59.734Z,5.65
2023-01-12T16:59:28.439Z,5.20
2023-01-12T17:01:55.241Z,4.72
2023-01-12T17:04:21.888Z,4.45
2023-01-12T17:06:48.505Z,4.95
2023-01-12T17:09:15.460Z,7.93
2023-01-12T17:11:43.637Z,5.88
2023-01-12T17:14:22.911Z,7.75
2023-01-12T17:16:50.756Z,5.40
2023-01-12T17:19:18.043Z,6.47
2023-01-12T17:21:45.103Z,6.95
2023-01-12T17:24:16.798Z,8.27
2023-01-12T17:26:43.437Z,5.65
2023-01-12T17:29:10.746Z,6.40
2023-01-12T17:31:38.045Z,10.65
2023-01-12T17:34:53.200Z,15.50
2023-01-12T17:37:19.693Z,5.68
2023-01-12T17:39:55.366Z,5.70
2023-01-12T17:42:40.693Z,7.05
2023-01-12T17:45:07.242Z,5.78
2023-01-12T17:47:33.603Z,6.45
2023-01-12T17:50:00.094Z,6.47
2023-01-12T17:52:38.787Z,11.15
2023-01-12T17:55:05.508Z,14.38
2023-01-12T17:57:31.865Z,10.57
2023-01-12T17:59:58.466Z,11.32
2023-01-12T18:02:25.220Z,8.50
2023-01-12T18:04:51.639Z,4.90
2023-01-12T18:07:18.000Z,8.63
2023-01-12T18:09:44.405Z,5.93
2023-01-12T18:12:12.726Z,8.13
2023-01-12T18:14:39.190Z,6.57
2023-01-12T18:17:05.609Z,9.15
2023-01-12T18:19:43.972Z,6.47
2023-01-12T18:22:10.860Z,7.13
2023-01-12T18:24:37.348Z,7.70
2023-01-12T18:27:03.818Z,5.93
2023-01-12T18:29:30.239Z,6.85
2023-01-12T18:31:56.610Z,6.05
2023-01-12T18:34:22.966Z,5.78
2023-01-12T18:36:49.406Z,5.97
2023-01-12T18:39:20.743Z,8.40
2023-01-12T18:42:06.489Z,7.53
2023-01-12T18:44:33.150Z,9.35
2023-01-12T18:47:18.587Z,8.10
2023-01-12T18:49:56.443Z,7.05
2023-01-12T18:52:41.421Z,8.02
2023-01-12T18:58:05.449Z,6.15
2023-01-12T19:00:31.889Z,7.25
2023-01-12T19:02:58.357Z,7.20
2023-01-12T19:05:30.569Z,8.98
2023-01-12T19:07:59.832Z,11.52
2023-01-12T19:10:27.481Z,16.40
2023-01-12T19:13:13.790Z,8.18
2023-01-12T19:16:01.476Z,9.30
2023-01-12T19:18:28.271Z,8.80
2023-01-12T19:21:16.870Z,9.73
2023-01-12T19:24:01.766Z,10.55
2023-01-12T19:26:46.599Z,20.70
2023-01-12T19:29:12.912Z,9.40
2023-01-12T19:31:39.264Z,10.85
2023-01-12T19:34:05.582Z,8.52
2023-01-12T19:36:31.963Z,9.55
2023-01-12T19:39:00.515Z,9.30
2023-01-12T19:41:45.366Z,8.65
2023-01-12T19:44:11.762Z,8.18
2023-01-12T19:46:39.014Z,7.78
2023-01-12T19:49:05.375Z,11.05
2023-01-12T19:51:31.765Z,8.88
2023-01-12T19:53:58.071Z,8.68
2023-01-12T19:56:24.435Z,9.27
2023-01-12T19:58:51.762Z,9.65
2023-01-12T20:01:21.774Z,9.73
2023-01-12T20:03:50.491Z,11.70
2023-01-12T20:06:17.207Z,7.85
2023-01-12T20:08:44.132Z,9.35
2023-01-12T20:11:11.435Z,7.72
2023-01-12T20:13:37.829Z,8.25
2023-01-12T20:16:10.653Z,7.85
2023-01-12T20:18:37.112Z,8.82
2023-01-12T20:21:07.516Z,7.93
2023-01-12T20:23:36.543Z,6.30
2023-01-12T20:26:05.506Z,9.52
2023-01-12T20:28:31.895Z,9.73
2023-01-12T20:30:59.487Z,8.25
2023-01-12T20:33:26.357Z,8.05
2023-01-12T20:35:53.610Z,10.63
2023-01-12T20:38:20.187Z,8.70
2023-01-12T20:40:49.859Z,7.10
2023-01-12T20:43:16.506Z,7.65
2023-01-12T20:45:44.047Z,6.30
2023-01-12T20:48:15.194Z,7.50
2023-01-12T20:50:42.487Z,8.13
2023-01-12T20:53:09.454Z,6.07
2023-01-12T20:55:35.991Z,9.10
2023-01-12T20:58:02.285Z,6.85
2023-01-12T21:00:29.161Z,8.85
2023-01-12T21:02:55.502Z,6.97
2023-01-12T21:05:21.886Z,6.20
2023-01-12T21:07:50.094Z,6.35
2023-01-12T21:10:16.708Z,9.88
2023-01-12T21:12:43.037Z,6.25
2023-01-12T21:15:09.777Z,7.85
2023-01-12T21:17:39.039Z,7.72
2023-01-12T21:20:06.431Z,5.80
2023-01-12T21:22:32.755Z,5.88
2023-01-12T21:24:59.090Z,4.85
2023-01-12T21:27:25.433Z,5.05
2023-01-12T21:29:51.956Z,5.22
2023-01-12T21:32:18.708Z,6.40
2023-01-12T21:34:45.167Z,5.90
2023-01-12T21:37:11.726Z,7.13
2023-01-12T21:39:38.130Z,6.32
2023-01-12T21:42:23.175Z,4.72
2023-01-12T21:44:49.758Z,5.30
2023-01-12T21:47:16.211Z,8.13
2023-01-12T21:49:42.705Z,6.85
2023-01-12T21:52:09.281Z,5.35
2023-01-12T21:54:38.568Z,6.03
2023-01-12T21:57:06.602Z,8.68
2023-01-12T21:59:33.011Z,11.57
2023-01-12T22:01:59.587Z,13.82
2023-01-12T22:04:26.125Z,18.27
2023-01-12T22:06:52.940Z,12.50
2023-01-12T22:09:19.588Z,23.15
2023-01-12T22:11:46.065Z,14.93
2023-01-12T22:14:13.688Z,15.38
2023-01-12T22:16:40.308Z,14.15
2023-01-12T22:19:06.884Z,20.60
2023-01-12T22:21:35.482Z,18.02
2023-01-12T22:24:03.356Z,14.10
2023-01-12T22:26:30.532Z,18.05
2023-01-12T22:28:57.685Z,13.73
2023-01-12T22:31:25.039Z,14.20
2023-01-12T22:33:54.792Z,18.63
2023-01-12T22:36:21.412Z,16.60
2023-01-12T22:38:47.784Z,22.45
2023-01-12T22:41:16.246Z,14.60
2023-01-12T22:43:44.939Z,13.27
2023-01-12T22:46:19.031Z,13.68
2023-01-12T22:48:48.062Z,12.48
2023-01-12T22:51:14.531Z,16.90
2023-01-12T22:53:40.881Z,21.58
2023-01-12T22:56:07.566Z,19.17
2023-01-12T22:58:34.074Z,17.27
2023-01-12T23:01:04.912Z,20.17
2023-01-12T23:05:59.077Z,20.77
2023-01-12T23:08:25.613Z,19.40
2023-01-12T23:10:52.265Z,16.20
2023-01-12T23:13:21.214Z,17.50
2023-01-12T23:15:47.566Z,16.67
2023-01-12T23:18:14.707Z,21.60
2023-01-12T23:20:42.576Z,19.83
2023-01-12T23:23:09.713Z,12.23
2023-01-12T23:25:36.359Z,20.13
2023-01-12T23:28:02.992Z,17.60
2023-01-12T23:30:30.658Z,18.38
2023-01-12T23:33:00.939Z,26.08
2023-01-12T23:35:27.486Z,20.00
2023-01-12T23:37:54.017Z,19.23
2023-01-12T23:40:20.766Z,15.95
2023-01-12T23:42:47.314Z,26.13
2023-01-12T23:45:13.661Z,22.98
2023-01-12T23:47:40.570Z,24.35
2023-01-12T23:50:07.165Z,28.20
2023-01-12T23:52:33.468Z,23.10
2023-01-12T23:54:59.796Z,25.05
2023-01-12T23:57:26.202Z,23.40
2023-01-12T23:59:52.567Z,18.65
